createdAt,value
2019-02-06T00:01:54.725Z,0.30
2019-02-06T00:04:59.170Z,0.30
2019-02-06T00:08:05.244Z,0.20
2019-02-06T00:11:09.941Z,-0.10
2019-02-06T00:14:14.389Z,-0.30
2019-02-06T00:17:18.886Z,-0.30
2019-02-06T00:20:23.354Z,-0.20
2019-02-06T00:23:27.788Z,0.00
2019-02-06T00:26:32.565Z,-0.10
2019-02-06T00:29:37.013Z,-0.30
2019-02-06T00:32:41.522Z,-0.50
2019-02-06T00:35:45.969Z,-0.60
2019-02-06T00:38:50.468Z,-0.60
2019-02-06T00:41:54.909Z,-0.60
2019-02-06T00:44:59.371Z,-0.70
2019-02-06T00:48:04.147Z,-0.80
2019-02-06T00:51:08.602Z,-0.80
2019-02-06T00:54:13.302Z,-0.80
2019-02-06T00:57:17.750Z,-0.90
2019-02-06T01:00:24.140Z,-0.90
2019-02-06T01:03:28.577Z,-0.90
2019-02-06T01:06:33.204Z,-1.00
2019-02-06T01:09:37.982Z,-0.90
2019-02-06T01:12:43.095Z,-0.80
2019-02-06T01:15:47.545Z,-0.80
2019-02-06T01:18:51.993Z,-0.90
2019-02-06T01:21:56.439Z,-1.00
2019-02-06T01:25:01.231Z,-1.00
2019-02-06T01:28:05.661Z,-1.00
2019-02-06T01:31:11.660Z,-1.00
2019-02-06T01:34:16.079Z,-1.10
2019-02-06T01:37:20.872Z,-1.00
2019-02-06T01:40:25.708Z,-0.70
2019-02-06T01:43:30.149Z,-0.70
2019-02-06T01:46:34.600Z,-0.50
2019-02-06T01:49:39.428Z,-0.40
2019-02-06T01:52:44.217Z,-0.30
2019-02-06T01:55:48.663Z,-0.40
2019-02-06T01:58:53.484Z,-0.50
2019-02-06T02:01:57.923Z,-0.30
2019-02-06T02:05:02.629Z,-0.20
2019-02-06T02:08:07.501Z,-0.10
2019-02-06T02:11:12.017Z,0.00
2019-02-06T02:14:16.517Z,0.10
2019-02-06T02:17:21.343Z,0.10
2019-02-06T02:20:25.851Z,0.00
2019-02-06T02:23:30.295Z,-0.10
2019-02-06T02:26:35.137Z,0.00
2019-02-06T02:29:39.587Z,-0.10
2019-02-06T02:32:44.290Z,-0.20
2019-02-06T02:35:48.731Z,-0.30
2019-02-06T02:38:53.438Z,-0.40
2019-02-06T02:41:57.894Z,-0.40
2019-02-06T02:45:02.366Z,-0.40
2019-02-06T02:48:06.965Z,-0.30
2019-02-06T02:51:11.411Z,-0.30
2019-02-06T02:54:15.918Z,-0.20
2019-02-06T02:57:21.240Z,-0.20
2019-02-06T03:00:43.232Z,-0.10
2019-02-06T03:03:49.604Z,-0.10
2019-02-06T03:06:54.056Z,-0.10
2019-02-06T03:09:58.765Z,-0.10
2019-02-06T03:13:03.197Z,-0.10
2019-02-06T03:16:07.923Z,-0.30
2019-02-06T03:19:12.498Z,-0.60
2019-02-06T03:22:17.277Z,-0.80
2019-02-06T03:25:22.007Z,-1.00
2019-02-06T03:28:26.739Z,-0.90
2019-02-06T03:31:31.213Z,-0.80
2019-02-06T03:34:35.902Z,-0.60
2019-02-06T03:37:40.735Z,-0.40
2019-02-06T03:40:45.189Z,-0.30
2019-02-06T03:43:49.628Z,-0.40
2019-02-06T03:46:54.409Z,-0.50
2019-02-06T03:49:58.921Z,-0.70
2019-02-06T03:53:03.663Z,-0.80
2019-02-06T03:56:08.131Z,-0.80
2019-02-06T03:59:12.552Z,-0.80
2019-02-06T04:02:16.997Z,-0.70
2019-02-06T04:05:21.440Z,-0.70
2019-02-06T04:08:26.188Z,-0.70
2019-02-06T04:11:30.652Z,-0.60
2019-02-06T04:14:35.095Z,-0.70
2019-02-06T04:17:39.885Z,-0.80
2019-02-06T04:20:44.326Z,-0.70
2019-02-06T04:23:49.033Z,-0.70
2019-02-06T04:26:53.487Z,-0.70
2019-02-06T04:29:58.193Z,-0.80
2019-02-06T04:33:03.014Z,-0.70
2019-02-06T04:36:07.846Z,-0.60
2019-02-06T04:39:12.291Z,-0.60
2019-02-06T04:42:17.314Z,-0.50
2019-02-06T04:45:21.757Z,-0.40
2019-02-06T04:48:26.215Z,-0.50
2019-02-06T04:51:30.939Z,-0.70
2019-02-06T04:54:35.723Z,-0.70
2019-02-06T04:57:40.179Z,-0.70
2019-02-06T05:00:44.900Z,-0.60
2019-02-06T05:03:49.353Z,-0.60
2019-02-06T05:06:54.122Z,-0.80
2019-02-06T05:09:58.618Z,-0.80
2019-02-06T05:13:03.383Z,-0.70
2019-02-06T05:16:08.115Z,-0.50
2019-02-06T05:19:12.563Z,-0.50
2019-02-06T05:22:17.026Z,-0.50
2019-02-06T05:25:21.448Z,-0.50
2019-02-06T05:28:25.982Z,-0.60
2019-02-06T05:31:30.426Z,-0.60
2019-02-06T05:34:35.188Z,-0.80
2019-02-06T05:37:39.634Z,-0.70
2019-02-06T05:40:44.429Z,-0.70
2019-02-06T05:43:49.570Z,-0.60
2019-02-06T05:46:54.005Z,-0.70
2019-02-06T05:49:58.868Z,-0.70
2019-02-06T05:53:03.555Z,-0.70
2019-02-06T05:56:08.069Z,-0.80
2019-02-06T05:59:12.761Z,-0.90
2019-02-06T06:02:17.195Z,-1.10
2019-02-06T06:05:21.968Z,-1.20
2019-02-06T06:08:26.816Z,-1.20
2019-02-06T06:11:31.250Z,-1.20
2019-02-06T06:14:35.803Z,-1.40
2019-02-06T06:17:40.601Z,-1.60
2019-02-06T06:20:45.047Z,-1.70
2019-02-06T06:23:49.506Z,-1.80
2019-02-06T06:26:53.944Z,-1.80
2019-02-06T06:29:58.411Z,-1.90
2019-02-06T06:33:03.123Z,-2.00
2019-02-06T06:36:07.567Z,-2.10
2019-02-06T06:39:12.055Z,-2.10
2019-02-06T06:42:16.787Z,-2.10
2019-02-06T06:45:24.520Z,-2.10
2019-02-06T06:48:29.320Z,-2.10
2019-02-06T06:51:34.052Z,-2.10
2019-02-06T06:54:38.518Z,-1.90
2019-02-06T06:57:43.213Z,-1.70
2019-02-06T07:00:48.033Z,-1.60
2019-02-06T07:03:52.494Z,-1.40
2019-02-06T07:06:56.943Z,-1.30
2019-02-06T07:10:01.722Z,-1.10
2019-02-06T07:13:06.447Z,-0.90
2019-02-06T07:16:10.900Z,-0.80
2019-02-06T07:19:15.352Z,-0.90
2019-02-06T07:22:19.799Z,-1.00
2019-02-06T07:25:24.320Z,-1.10
2019-02-06T07:28:29.086Z,-1.20
2019-02-06T07:31:33.530Z,-1.20
2019-02-06T07:34:37.980Z,-1.30
2019-02-06T07:37:42.422Z,-1.30
2019-02-06T07:40:46.873Z,-1.30
2019-02-06T07:43:51.313Z,-1.20
2019-02-06T07:46:56.045Z,-1.10
2019-02-06T07:50:00.501Z,-1.00
2019-02-06T07:53:05.388Z,-0.90
2019-02-06T07:56:09.845Z,-0.80
2019-02-06T07:59:14.542Z,-0.80
2019-02-06T08:02:18.992Z,-0.80
2019-02-06T08:05:24.106Z,-0.80
2019-02-06T08:08:36.256Z,-0.80
2019-02-06T08:11:35.519Z,-0.80
2019-02-06T08:14:40.250Z,-0.80
2019-02-06T08:17:45.136Z,-0.70
2019-02-06T08:20:49.927Z,-0.70
2019-02-06T08:23:54.348Z,-0.70
2019-02-06T08:26:59.270Z,-0.70
2019-02-06T08:30:07.782Z,-0.60
2019-02-06T08:33:12.231Z,-0.60
2019-02-06T08:36:16.942Z,-0.40
2019-02-06T08:39:21.685Z,-0.40
2019-02-06T08:42:26.136Z,-0.30
2019-02-06T08:45:30.755Z,-0.20
2019-02-06T08:48:35.455Z,-0.20
2019-02-06T08:51:40.187Z,-0.10
2019-02-06T08:54:44.920Z,0.00
2019-02-06T08:57:50.068Z,0.00
2019-02-06T09:00:54.789Z,0.20
2019-02-06T09:03:59.219Z,0.20
2019-02-06T09:07:03.661Z,0.20
2019-02-06T09:10:24.116Z,0.30
2019-02-06T09:13:28.628Z,0.40
2019-02-06T09:16:33.078Z,0.40
2019-02-06T09:19:37.506Z,0.60
2019-02-06T09:22:41.948Z,0.80
2019-02-06T09:25:46.668Z,0.90
2019-02-06T09:28:51.096Z,1.00
2019-02-06T09:31:55.541Z,1.10
2019-02-06T09:35:00.309Z,1.40
2019-02-06T09:38:05.277Z,1.60
2019-02-06T09:41:09.723Z,1.80
2019-02-06T09:44:14.433Z,1.90
2019-02-06T09:47:18.886Z,2.10
2019-02-06T09:50:27.387Z,2.20
2019-02-06T09:53:31.813Z,2.40
2019-02-06T09:56:36.528Z,2.50
2019-02-06T09:59:41.260Z,2.70
2019-02-06T10:02:45.699Z,3.40
2019-02-06T10:05:50.132Z,4.20
2019-02-06T10:08:54.573Z,5.10
2019-02-06T10:11:59.089Z,5.60
2019-02-06T10:15:04.916Z,6.20
2019-02-06T10:18:09.954Z,6.20
2019-02-06T10:21:14.784Z,5.90
2019-02-06T10:24:19.618Z,5.60
2019-02-06T10:27:24.348Z,5.50
2019-02-06T10:30:45.068Z,5.50
2019-02-06T10:33:49.619Z,5.40
2019-02-06T10:36:54.024Z,5.50
2019-02-06T10:39:58.851Z,5.40
2019-02-06T10:43:03.412Z,5.10
2019-02-06T10:46:08.093Z,4.90
2019-02-06T10:49:12.537Z,5.00
2019-02-06T10:52:17.244Z,5.30
2019-02-06T10:55:21.980Z,5.80
2019-02-06T10:58:26.707Z,6.50
2019-02-06T11:01:31.146Z,7.20
2019-02-06T11:04:35.588Z,8.00
2019-02-06T11:07:40.035Z,8.60
2019-02-06T11:10:44.469Z,8.60
2019-02-06T11:13:49.902Z,9.10
2019-02-06T11:16:54.786Z,9.30
2019-02-06T11:19:59.524Z,8.80
2019-02-06T11:23:05.477Z,8.60
2019-02-06T11:26:09.925Z,8.70
2019-02-06T11:29:14.363Z,9.10
2019-02-06T11:32:19.373Z,9.30
2019-02-06T11:35:23.866Z,9.30
2019-02-06T11:38:28.342Z,9.10
2019-02-06T11:41:32.744Z,9.10
2019-02-06T11:44:37.276Z,9.10
2019-02-06T11:47:41.738Z,8.90
2019-02-06T11:50:46.243Z,8.80
2019-02-06T11:53:50.952Z,9.30
2019-02-06T11:56:55.376Z,9.90
2019-02-06T12:00:00.303Z,10.10
2019-02-06T12:03:05.237Z,10.20
2019-02-06T12:06:09.981Z,10.60
2019-02-06T12:09:14.491Z,11.10
2019-02-06T12:12:18.931Z,11.70
2019-02-06T12:15:23.661Z,12.30
2019-02-06T12:18:28.114Z,12.30
2019-02-06T12:21:32.911Z,12.30
2019-02-06T12:24:37.355Z,12.70
2019-02-06T12:27:42.059Z,12.80
2019-02-06T12:30:46.636Z,13.30
2019-02-06T12:33:51.098Z,13.10
2019-02-06T12:36:55.849Z,13.20
2019-02-06T12:40:00.575Z,13.40
2019-02-06T12:43:06.925Z,13.50
2019-02-06T12:46:11.648Z,13.60
2019-02-06T12:49:16.109Z,13.60
2019-02-06T12:52:20.929Z,13.90
2019-02-06T12:55:36.312Z,14.00
2019-02-06T12:58:40.755Z,13.90
2019-02-06T13:01:45.463Z,14.20
2019-02-06T13:04:49.917Z,14.20
2019-02-06T13:07:54.721Z,14.00
2019-02-06T13:10:59.171Z,13.70
2019-02-06T13:14:03.879Z,14.70
2019-02-06T13:17:08.604Z,15.10
2019-02-06T13:20:32.476Z,14.50
2019-02-06T13:23:36.913Z,14.10
2019-02-06T13:26:44.144Z,14.60
2019-02-06T13:29:47.619Z,15.10
2019-02-06T13:32:52.072Z,15.50
2019-02-06T13:35:56.876Z,15.50
2019-02-06T13:39:01.588Z,15.10
2019-02-06T13:42:06.035Z,15.10
2019-02-06T13:45:21.288Z,15.00
2019-02-06T13:48:25.735Z,15.00
2019-02-06T13:51:30.439Z,15.10
2019-02-06T13:54:34.878Z,14.70
2019-02-06T13:57:39.424Z,14.60
2019-02-06T14:00:43.854Z,14.60
2019-02-06T14:03:48.302Z,14.70
2019-02-06T14:06:52.756Z,14.70
2019-02-06T14:09:57.495Z,14.80
2019-02-06T14:13:02.050Z,14.40
2019-02-06T14:16:08.082Z,14.10
2019-02-06T14:19:12.526Z,14.10
2019-02-06T14:22:16.977Z,13.40
2019-02-06T14:25:46.444Z,13.00
2019-02-06T14:29:10.632Z,12.60
2019-02-06T14:32:25.519Z,12.90
2019-02-06T14:35:46.831Z,13.20
2019-02-06T14:39:05.031Z,12.80
2019-02-06T14:42:25.392Z,12.20
2019-02-06T14:45:52.845Z,11.40
2019-02-06T14:49:13.631Z,10.80
2019-02-06T14:52:45.189Z,10.10
2019-02-06T14:56:03.025Z,9.50
2019-02-06T14:59:30.590Z,9.10
2019-02-06T15:03:02.491Z,8.80
2019-02-06T15:06:40.367Z,8.70
2019-02-06T15:09:55.649Z,8.70
2019-02-06T15:13:24.610Z,8.60
2019-02-06T15:16:56.409Z,8.50
2019-02-06T15:20:22.541Z,8.30
2019-02-06T15:24:09.976Z,8.30
2019-02-06T15:27:40.316Z,8.20
2019-02-06T15:31:18.498Z,8.20
2019-02-06T15:34:50.125Z,8.10
2019-02-06T15:38:17.654Z,7.80
2019-02-06T15:41:42.246Z,7.70
2019-02-06T15:45:09.708Z,7.50
2019-02-06T15:48:40.345Z,7.40
2019-02-06T15:52:11.920Z,7.30
2019-02-06T15:55:54.424Z,7.30
2019-02-06T15:59:12.394Z,7.20
2019-02-06T16:02:39.109Z,7.10
2019-02-06T16:06:07.381Z,7.00
2019-02-06T16:09:55.828Z,6.90
2019-02-06T16:13:26.181Z,6.80
2019-02-06T16:17:04.191Z,6.70
2019-02-06T16:20:38.984Z,6.60
2019-02-06T16:23:57.377Z,6.60
2019-02-06T16:27:22.021Z,6.50
2019-02-06T16:30:47.778Z,6.40
2019-02-06T16:34:26.235Z,6.40
2019-02-06T16:37:41.277Z,6.20
2019-02-06T16:41:13.786Z,6.00
2019-02-06T16:44:28.953Z,5.80
2019-02-06T16:48:10.849Z,5.70
2019-02-06T16:51:28.707Z,5.60
2019-02-06T16:54:59.300Z,5.30
2019-02-06T16:58:31.862Z,5.20
2019-02-06T17:01:49.548Z,5.10
2019-02-06T17:05:31.215Z,4.90
2019-02-06T17:08:49.383Z,4.80
2019-02-06T17:12:22.368Z,4.70
2019-02-06T17:15:43.363Z,4.60
2019-02-06T17:19:30.344Z,4.60
2019-02-06T17:22:53.861Z,4.40
2019-02-06T17:26:11.351Z,4.30
2019-02-06T17:29:40.866Z,4.20
2019-02-06T17:33:17.844Z,4.00
2019-02-06T17:36:41.845Z,3.70
2019-02-06T17:40:12.210Z,3.50
2019-02-06T17:43:50.239Z,3.30
2019-02-06T17:47:31.531Z,3.10
2019-02-06T17:50:57.069Z,2.90
2019-02-06T17:54:18.017Z,2.80
2019-02-06T17:57:22.731Z,2.80
2019-02-06T18:00:37.963Z,2.70
2019-02-06T18:03:45.506Z,2.60
2019-02-06T18:06:50.393Z,2.60
2019-02-06T18:09:54.829Z,2.60
2019-02-06T18:12:59.271Z,2.50
2019-02-06T18:16:03.972Z,2.40
2019-02-06T18:19:08.506Z,2.30
2019-02-06T18:22:13.078Z,2.30
2019-02-06T18:25:17.659Z,2.20
2019-02-06T18:28:22.483Z,2.20
2019-02-06T18:31:27.022Z,2.20
2019-02-06T18:34:31.540Z,2.20
2019-02-06T18:37:43.200Z,2.20
2019-02-06T18:40:44.727Z,2.20
2019-02-06T18:43:49.161Z,2.20
2019-02-06T18:46:55.491Z,2.20
2019-02-06T18:49:59.940Z,2.30
2019-02-06T18:53:05.639Z,2.30
2019-02-06T18:56:10.530Z,2.30
2019-02-06T18:59:14.965Z,2.30
2019-02-06T19:02:19.410Z,2.30
2019-02-06T19:05:38.847Z,2.30
2019-02-06T19:08:43.455Z,2.40
2019-02-06T19:11:48.378Z,2.40
2019-02-06T19:14:53.925Z,2.60
2019-02-06T19:17:58.375Z,2.50
2019-02-06T19:21:02.814Z,2.60
2019-02-06T19:24:07.595Z,2.60
2019-02-06T19:27:14.553Z,2.40
2019-02-06T19:30:34.749Z,2.20
2019-02-06T19:33:39.513Z,2.20
2019-02-06T19:36:45.078Z,2.10
2019-02-06T19:39:49.912Z,2.00
2019-02-06T19:43:00.439Z,1.90
2019-02-06T19:46:00.787Z,1.70
2019-02-06T19:49:05.364Z,1.70
2019-02-06T19:52:10.147Z,1.70
2019-02-06T19:55:16.892Z,1.70
2019-02-06T19:58:21.336Z,1.60
2019-02-06T20:01:26.049Z,1.50
2019-02-06T20:04:30.496Z,1.40
2019-02-06T20:07:35.239Z,1.40
2019-02-06T20:10:53.294Z,1.30
2019-02-06T20:13:58.115Z,1.30
2019-02-06T20:17:02.599Z,1.20
2019-02-06T20:20:26.628Z,1.20
2019-02-06T20:23:31.355Z,1.20
2019-02-06T20:26:35.789Z,1.10
2019-02-06T20:29:40.505Z,1.20
2019-02-06T20:32:45.649Z,1.20
2019-02-06T20:35:50.093Z,1.30
2019-02-06T20:38:54.803Z,1.20
2019-02-06T20:42:01.888Z,1.00
2019-02-06T20:45:09.440Z,0.90
2019-02-06T20:48:14.236Z,0.80
2019-02-06T20:51:19.255Z,0.70
2019-02-06T20:54:23.713Z,0.70
2019-02-06T20:57:28.412Z,0.80
2019-02-06T21:00:38.929Z,0.90
2019-02-06T21:03:43.706Z,1.00
2019-02-06T21:06:48.160Z,1.00
2019-02-06T21:09:52.599Z,0.90
2019-02-06T21:12:57.111Z,1.00
2019-02-06T21:16:01.857Z,0.90
2019-02-06T21:19:06.471Z,0.70
2019-02-06T21:22:11.273Z,1.00
2019-02-06T21:25:18.727Z,1.00
2019-02-06T21:28:23.255Z,0.90
2019-02-06T21:31:27.692Z,0.70
2019-02-06T21:34:32.139Z,0.50
2019-02-06T21:37:36.588Z,0.30
2019-02-06T21:40:41.295Z,0.20
2019-02-06T21:43:45.731Z,0.20
2019-02-06T21:46:50.450Z,0.40
2019-02-06T21:49:54.895Z,0.60
2019-02-06T21:52:59.615Z,0.70
2019-02-06T21:56:04.340Z,0.60
2019-02-06T21:59:11.622Z,0.60
2019-02-06T22:02:15.441Z,0.60
2019-02-06T22:05:19.886Z,0.70
2019-02-06T22:08:24.607Z,0.70
2019-02-06T22:11:29.048Z,0.60
2019-02-06T22:14:33.741Z,0.60
2019-02-06T22:17:38.580Z,0.60
2019-02-06T22:20:43.020Z,0.50
2019-02-06T22:23:47.732Z,0.60
2019-02-06T22:26:52.160Z,0.60
2019-02-06T22:29:56.602Z,0.80
2019-02-06T22:33:01.038Z,0.90
2019-02-06T22:36:05.550Z,0.90
2019-02-06T22:39:11.799Z,0.80
2019-02-06T22:42:16.224Z,0.70
2019-02-06T22:45:26.706Z,0.60
2019-02-06T22:48:31.154Z,0.50
2019-02-06T22:51:35.848Z,0.40
2019-02-06T22:54:40.283Z,0.40
2019-02-06T22:57:44.987Z,0.60
2019-02-06T23:01:00.369Z,0.70
2019-02-06T23:04:05.544Z,0.70
2019-02-06T23:07:09.976Z,0.50
2019-02-06T23:10:14.416Z,0.40
2019-02-06T23:13:18.855Z,0.40
2019-02-06T23:16:23.300Z,0.30
2019-02-06T23:19:28.053Z,0.20
2019-02-06T23:22:32.490Z,0.10
2019-02-06T23:25:37.200Z,0.00
2019-02-06T23:28:41.929Z,0.00
2019-02-06T23:31:46.365Z,0.00
2019-02-06T23:34:50.804Z,0.00
2019-02-06T23:37:55.913Z,0.10
2019-02-06T23:41:00.685Z,0.20
2019-02-06T23:44:05.611Z,0.20
2019-02-06T23:47:10.400Z,0.10
2019-02-06T23:50:18.616Z,0.10
2019-02-06T23:53:23.355Z,0.10
2019-02-06T23:56:27.812Z,0.20
2019-02-06T23:59:32.255Z,0.20
